createdAt,value
2022-08-26T00:00:57.105Z,95.7
2022-08-26T00:01:57.158Z,95.7
2022-08-26T00:02:57.116Z,95.7
2022-08-26T00:03:57.133Z,95.7
2022-08-26T00:04:57.319Z,95.7
2022-08-26T00:05:57.095Z,95.7
2022-08-26T00:06:57.186Z,95.7
2022-08-26T00:07:57.137Z,95.7
2022-08-26T00:08:57.352Z,95.7
2022-08-26T00:09:58.751Z,98.87
2022-08-26T00:11:01.062Z,99.05
2022-08-26T00:11:57.588Z,99.46
2022-08-26T00:12:56.908Z,99.43
2022-08-26T00:13:58.393Z,99.42
2022-08-26T00:14:57.481Z,99.42
2022-08-26T00:15:57.745Z,99.42
2022-08-26T00:16:57.167Z,99.42
2022-08-26T00:17:57.365Z,100
2022-08-26T00:18:57.734Z,100
2022-08-26T00:19:57.102Z,100
2022-08-26T00:20:57.134Z,100
2022-08-26T00:21:57.107Z,100
2022-08-26T00:22:57.108Z,100
2022-08-26T00:23:57.100Z,100
2022-08-26T00:24:57.176Z,100
2022-08-26T00:25:58.230Z,100
2022-08-26T00:26:57.108Z,100
2022-08-26T00:27:58.104Z,100
2022-08-26T00:28:57.117Z,100
2022-08-26T00:29:58.111Z,100
2022-08-26T00:30:57.106Z,100
2022-08-26T00:31:57.137Z,100
2022-08-26T00:32:58.088Z,100
2022-08-26T00:33:58.145Z,100
2022-08-26T00:34:57.416Z,100
2022-08-26T00:35:57.188Z,100
2022-08-26T00:36:57.105Z,100
2022-08-26T00:37:57.195Z,100
2022-08-26T00:38:57.196Z,100
2022-08-26T00:40:01.167Z,100
2022-08-26T00:40:57.111Z,100
2022-08-26T00:41:57.393Z,100
2022-08-26T00:42:57.688Z,100
2022-08-26T00:44:01.239Z,100
2022-08-26T00:44:57.209Z,100
2022-08-26T00:45:57.486Z,100
2022-08-26T00:46:58.721Z,100
2022-08-26T00:47:57.094Z,100
2022-08-26T00:48:57.170Z,100
2022-08-26T00:49:57.498Z,100
2022-08-26T00:50:57.774Z,100
2022-08-26T00:51:57.187Z,100
2022-08-26T00:52:57.522Z,100
2022-08-26T00:53:58.702Z,100
2022-08-26T00:54:57.099Z,100
2022-08-26T00:55:57.435Z,100
2022-08-26T00:57:00.816Z,100
2022-08-26T00:57:57.979Z,100
2022-08-26T00:58:57.615Z,100
2022-08-26T00:59:57.250Z,100
2022-08-26T01:00:57.407Z,100
2022-08-26T01:01:58.549Z,100
2022-08-26T01:02:57.416Z,100
2022-08-26T01:03:58.559Z,100
2022-08-26T01:04:58.582Z,100
2022-08-26T01:05:57.439Z,100
2022-08-26T01:06:57.687Z,100
2022-08-26T01:07:57.210Z,100
2022-08-26T01:08:57.109Z,100
2022-08-26T01:09:57.423Z,100
2022-08-26T01:10:57.458Z,100
2022-08-26T01:11:57.188Z,100
2022-08-26T01:12:57.351Z,100
2022-08-26T01:13:57.182Z,100
2022-08-26T01:14:57.107Z,100
2022-08-26T01:15:57.255Z,100
2022-08-26T01:16:57.405Z,100
2022-08-26T01:17:57.219Z,100
2022-08-26T01:18:57.128Z,100
2022-08-26T01:19:57.104Z,100
2022-08-26T01:21:00.436Z,100
2022-08-26T01:21:58.108Z,100
2022-08-26T01:22:57.100Z,100
2022-08-26T01:24:00.152Z,100
2022-08-26T01:24:58.101Z,100
2022-08-26T01:25:57.099Z,100
2022-08-26T01:26:57.112Z,100
2022-08-26T01:28:00.109Z,100
2022-08-26T01:28:57.144Z,100
2022-08-26T01:29:57.100Z,100
2022-08-26T01:30:57.094Z,100
2022-08-26T01:31:57.146Z,100
2022-08-26T01:32:57.085Z,100
2022-08-26T01:33:58.158Z,100
2022-08-26T01:34:57.105Z,100
2022-08-26T01:35:57.103Z,100
2022-08-26T01:36:57.149Z,100
2022-08-26T01:37:57.104Z,100
2022-08-26T01:38:57.134Z,100
2022-08-26T01:39:58.268Z,100
2022-08-26T01:40:58.102Z,100
2022-08-26T01:41:57.153Z,100
2022-08-26T01:42:57.105Z,100
2022-08-26T01:43:57.125Z,100
2022-08-26T01:44:58.091Z,100
2022-08-26T01:45:57.183Z,100
2022-08-26T01:46:57.161Z,100
2022-08-26T01:48:01.118Z,100
2022-08-26T01:48:57.101Z,100
2022-08-26T01:49:57.177Z,100
2022-08-26T01:50:57.127Z,100
2022-08-26T01:51:58.109Z,100
2022-08-26T01:52:57.099Z,100
2022-08-26T01:53:57.100Z,100
2022-08-26T01:54:57.112Z,100
2022-08-26T01:55:57.123Z,100
2022-08-26T01:56:58.105Z,100
2022-08-26T01:57:58.116Z,100
2022-08-26T01:58:58.177Z,100
2022-08-26T01:59:57.109Z,100
2022-08-26T02:00:57.216Z,100
2022-08-26T02:01:57.115Z,100
2022-08-26T02:02:57.105Z,100
2022-08-26T02:03:57.103Z,100
2022-08-26T02:04:57.184Z,100
2022-08-26T02:05:57.140Z,100
2022-08-26T02:07:01.115Z,100
2022-08-26T02:07:57.112Z,100
2022-08-26T02:08:57.109Z,100
2022-08-26T02:09:57.113Z,100
2022-08-26T02:10:57.148Z,100
2022-08-26T02:11:57.143Z,100
2022-08-26T02:12:58.128Z,100
2022-08-26T02:13:57.098Z,100
2022-08-26T02:14:57.105Z,100
2022-08-26T02:15:57.198Z,100
2022-08-26T02:16:57.123Z,100
2022-08-26T02:18:00.211Z,100
2022-08-26T02:18:57.106Z,100
2022-08-26T02:19:57.100Z,100
2022-08-26T02:20:57.149Z,100
2022-08-26T02:21:57.162Z,100
2022-08-26T02:22:58.113Z,100
2022-08-26T02:23:58.098Z,100
2022-08-26T02:24:57.086Z,100
2022-08-26T02:25:57.164Z,100
2022-08-26T02:26:58.091Z,100
2022-08-26T02:27:58.203Z,100
2022-08-26T02:28:57.124Z,100
2022-08-26T02:29:57.382Z,100
2022-08-26T02:30:57.104Z,100
2022-08-26T02:31:57.094Z,100
2022-08-26T02:32:58.598Z,100
2022-08-26T02:33:58.118Z,100
2022-08-26T02:34:57.168Z,100
2022-08-26T02:35:57.189Z,100
2022-08-26T02:36:57.494Z,100
2022-08-26T02:37:58.113Z,100
2022-08-26T02:38:57.099Z,100
2022-08-26T02:39:57.446Z,100
2022-08-26T02:40:57.119Z,100
2022-08-26T02:41:57.126Z,100
2022-08-26T02:43:00.292Z,100
2022-08-26T02:43:57.113Z,100
2022-08-26T02:44:57.125Z,100
2022-08-26T02:45:57.107Z,100
2022-08-26T02:46:57.132Z,100
2022-08-26T02:47:58.104Z,100
2022-08-26T02:48:57.124Z,100
2022-08-26T02:49:57.121Z,100
2022-08-26T02:50:57.116Z,100
2022-08-26T02:51:57.109Z,100
2022-08-26T02:52:57.136Z,100
2022-08-26T02:53:57.113Z,100
2022-08-26T02:54:57.130Z,100
2022-08-26T02:55:57.101Z,100
2022-08-26T02:56:57.098Z,100
2022-08-26T02:57:57.123Z,100
2022-08-26T02:58:57.128Z,100
2022-08-26T02:59:57.106Z,100
2022-08-26T03:00:57.107Z,100
2022-08-26T03:01:58.111Z,100
2022-08-26T03:02:57.111Z,100
2022-08-26T03:03:57.141Z,100
2022-08-26T03:05:03.165Z,100
2022-08-26T03:05:57.112Z,100
2022-08-26T03:06:57.331Z,100
2022-08-26T03:07:57.111Z,100
2022-08-26T03:08:57.122Z,100
2022-08-26T03:09:57.102Z,100
2022-08-26T03:10:57.099Z,100
2022-08-26T03:11:57.105Z,100
2022-08-26T03:12:59.108Z,100
2022-08-26T03:13:57.139Z,100
2022-08-26T03:14:57.118Z,100
2022-08-26T03:15:58.147Z,100
2022-08-26T03:16:57.394Z,100
2022-08-26T03:18:00.123Z,100
2022-08-26T03:18:57.144Z,100
2022-08-26T03:19:59.146Z,100
2022-08-26T03:20:57.127Z,100
2022-08-26T03:22:00.135Z,100
2022-08-26T03:22:58.399Z,100
2022-08-26T03:24:01.207Z,100
2022-08-26T03:24:57.146Z,100
2022-08-26T03:25:58.135Z,100
2022-08-26T03:26:57.612Z,100
2022-08-26T03:27:59.484Z,100
2022-08-26T03:28:57.508Z,100
2022-08-26T03:29:57.436Z,100
2022-08-26T03:30:57.785Z,100
2022-08-26T03:31:57.147Z,100
2022-08-26T03:32:57.397Z,100
2022-08-26T03:34:01.666Z,100
2022-08-26T03:34:57.104Z,100
2022-08-26T03:35:57.107Z,100
2022-08-26T03:36:57.117Z,100
2022-08-26T03:37:57.129Z,100
2022-08-26T03:38:57.089Z,100
2022-08-26T03:39:57.194Z,100
2022-08-26T03:40:57.085Z,100
2022-08-26T03:41:57.181Z,100
2022-08-26T03:42:57.098Z,100
2022-08-26T03:44:02.069Z,100
2022-08-26T03:44:57.075Z,100
2022-08-26T03:45:58.105Z,100
2022-08-26T03:46:57.076Z,100
2022-08-26T03:48:00.493Z,100
2022-08-26T03:48:57.354Z,100
2022-08-26T03:49:57.425Z,100
2022-08-26T03:50:58.435Z,100
2022-08-26T03:51:57.081Z,100
2022-08-26T03:52:57.272Z,100
2022-08-26T03:53:58.368Z,100
2022-08-26T03:54:57.752Z,100
2022-08-26T03:55:58.144Z,100
2022-08-26T03:56:57.456Z,100
2022-08-26T03:57:57.591Z,100
2022-08-26T03:58:57.108Z,100
2022-08-26T03:59:57.269Z,100
2022-08-26T04:00:57.104Z,100
2022-08-26T04:01:57.131Z,100
2022-08-26T04:02:57.165Z,100
2022-08-26T04:03:57.098Z,100
2022-08-26T04:04:57.086Z,100
2022-08-26T04:05:57.096Z,100
2022-08-26T04:06:57.102Z,100
2022-08-26T04:07:57.093Z,100
2022-08-26T04:08:57.161Z,100
2022-08-26T04:09:57.227Z,100
2022-08-26T04:10:57.336Z,100
2022-08-26T04:11:58.148Z,100
2022-08-26T04:12:58.761Z,100
2022-08-26T04:13:57.076Z,100
2022-08-26T04:15:00.220Z,100
2022-08-26T04:15:57.471Z,100
2022-08-26T04:16:57.383Z,100
2022-08-26T04:17:58.759Z,100
2022-08-26T04:18:57.403Z,100
2022-08-26T04:19:57.526Z,100
2022-08-26T04:20:57.456Z,100
2022-08-26T04:21:58.784Z,100
2022-08-26T04:22:58.610Z,100
2022-08-26T04:23:58.463Z,100
2022-08-26T04:24:58.232Z,100
2022-08-26T04:25:57.099Z,100
2022-08-26T04:26:57.346Z,100
2022-08-26T04:27:58.094Z,100
2022-08-26T04:28:57.138Z,100
2022-08-26T04:29:57.257Z,100
2022-08-26T04:30:57.102Z,100
2022-08-26T04:31:57.160Z,100
2022-08-26T04:32:57.118Z,100
2022-08-26T04:33:58.684Z,100
2022-08-26T04:34:58.108Z,100
2022-08-26T04:35:57.103Z,100
2022-08-26T04:36:57.102Z,100
2022-08-26T04:37:57.103Z,100
2022-08-26T04:38:57.117Z,100
2022-08-26T04:39:57.151Z,100
2022-08-26T04:41:00.099Z,100
2022-08-26T04:41:58.118Z,100
2022-08-26T04:42:57.104Z,100
2022-08-26T04:43:58.117Z,100
2022-08-26T04:44:57.095Z,100
2022-08-26T04:45:58.154Z,100
2022-08-26T04:46:57.114Z,100
2022-08-26T04:47:57.087Z,100
2022-08-26T04:48:57.096Z,100
2022-08-26T04:49:58.103Z,100
2022-08-26T04:50:57.204Z,100
2022-08-26T04:51:57.139Z,100
2022-08-26T04:52:57.104Z,100
2022-08-26T04:53:57.222Z,100
2022-08-26T04:54:57.113Z,100
2022-08-26T04:55:57.112Z,100
2022-08-26T04:56:57.104Z,100
2022-08-26T04:57:57.096Z,100
2022-08-26T04:58:57.103Z,100
2022-08-26T04:59:57.124Z,100
2022-08-26T05:00:57.121Z,100
2022-08-26T05:01:57.230Z,100
2022-08-26T05:02:57.159Z,100
2022-08-26T05:03:57.220Z,100
2022-08-26T05:04:57.109Z,100
2022-08-26T05:05:57.098Z,100
2022-08-26T05:07:03.215Z,100
2022-08-26T05:07:58.098Z,100
2022-08-26T05:08:57.117Z,100
2022-08-26T05:09:57.089Z,100
2022-08-26T05:10:57.115Z,100
2022-08-26T05:11:57.102Z,100
2022-08-26T05:12:58.113Z,100
2022-08-26T05:14:03.220Z,100
2022-08-26T05:14:57.111Z,100
2022-08-26T05:16:03.247Z,100
2022-08-26T05:16:57.098Z,100
2022-08-26T05:17:57.096Z,100
2022-08-26T05:18:57.099Z,100
2022-08-26T05:19:57.124Z,100
2022-08-26T05:20:57.092Z,100
2022-08-26T05:21:57.099Z,100
2022-08-26T05:22:57.104Z,100
2022-08-26T05:23:57.110Z,100
2022-08-26T05:24:57.112Z,100
2022-08-26T05:26:01.115Z,100
2022-08-26T05:26:58.214Z,100
2022-08-26T05:27:57.335Z,100
2022-08-26T05:28:57.108Z,100
2022-08-26T05:29:57.117Z,100
2022-08-26T05:30:57.221Z,100
2022-08-26T05:31:59.108Z,100
2022-08-26T05:32:57.101Z,100
2022-08-26T05:33:57.110Z,100
2022-08-26T05:34:57.111Z,100
2022-08-26T05:35:57.233Z,100
2022-08-26T05:36:57.133Z,100
2022-08-26T05:37:57.215Z,100
2022-08-26T05:38:57.071Z,100
2022-08-26T05:39:57.115Z,100
2022-08-26T05:40:57.113Z,100
2022-08-26T05:41:57.118Z,100
2022-08-26T05:42:57.189Z,100
2022-08-26T05:43:57.272Z,100
2022-08-26T05:44:58.257Z,100
2022-08-26T05:45:57.109Z,100
2022-08-26T05:46:57.221Z,100
2022-08-26T05:47:57.540Z,100
2022-08-26T05:48:57.112Z,100
2022-08-26T05:49:57.132Z,100
2022-08-26T05:50:57.392Z,100
2022-08-26T05:51:57.670Z,100
2022-08-26T05:52:57.095Z,100
2022-08-26T05:53:57.090Z,99.75
2022-08-26T05:54:57.229Z,99.76
2022-08-26T05:55:57.098Z,99.45
2022-08-26T05:56:57.100Z,98.87
2022-08-26T05:57:58.147Z,99.21
2022-08-26T05:59:00.189Z,99.09
2022-08-26T05:59:58.105Z,98.77
2022-08-26T06:00:57.340Z,98.4
2022-08-26T06:01:57.117Z,97.17
2022-08-26T06:02:57.152Z,96.9
2022-08-26T06:04:01.641Z,96.1
2022-08-26T06:04:57.111Z,94.49
2022-08-26T06:05:57.095Z,93.85
2022-08-26T06:06:57.093Z,93.37
2022-08-26T06:07:57.097Z,92.45
2022-08-26T06:08:57.110Z,92.22
2022-08-26T06:10:21.547Z,92.29
2022-08-26T06:10:57.122Z,92.1
2022-08-26T06:11:57.099Z,91.91
2022-08-26T06:12:57.095Z,91.68
2022-08-26T06:14:03.663Z,91.95
2022-08-26T06:14:57.100Z,92.64
2022-08-26T06:15:59.229Z,92.65
2022-08-26T06:16:57.095Z,92.35
2022-08-26T06:17:57.086Z,94.4
2022-08-26T06:18:57.099Z,95.56
2022-08-26T06:19:57.098Z,96.22
2022-08-26T06:21:00.185Z,97.73
2022-08-26T06:21:57.117Z,98.58
2022-08-26T06:22:57.097Z,99.17
2022-08-26T06:24:01.100Z,99.66
2022-08-26T06:24:57.097Z,100
2022-08-26T06:25:58.103Z,100
2022-08-26T06:26:57.096Z,100
2022-08-26T06:27:57.088Z,100
2022-08-26T06:28:57.101Z,100
2022-08-26T06:29:57.135Z,100
2022-08-26T06:30:57.140Z,100
2022-08-26T06:31:58.147Z,100
2022-08-26T06:32:57.099Z,100
2022-08-26T06:33:57.103Z,100
2022-08-26T06:34:57.086Z,100
2022-08-26T06:36:00.115Z,100
2022-08-26T06:36:58.415Z,100
2022-08-26T06:37:57.119Z,99.18
2022-08-26T06:38:57.982Z,99
2022-08-26T06:39:59.603Z,98.18
2022-08-26T06:41:00.923Z,97.87
2022-08-26T06:41:57.017Z,97.85
2022-08-26T06:42:57.359Z,97.85
2022-08-26T06:43:57.641Z,96.8
2022-08-26T06:44:57.985Z,96.83
2022-08-26T06:45:57.324Z,96.93
2022-08-26T06:46:57.678Z,96.71
2022-08-26T06:47:57.088Z,96.24
2022-08-26T06:48:57.106Z,96.26
2022-08-26T06:49:57.161Z,96.29
2022-08-26T06:50:57.097Z,96.04
2022-08-26T06:51:57.153Z,96.28
2022-08-26T06:53:01.417Z,97.41
2022-08-26T06:53:58.109Z,98.48
2022-08-26T06:54:57.088Z,98.14
2022-08-26T06:55:57.093Z,98.1
2022-08-26T06:56:57.161Z,97.85
2022-08-26T06:57:57.113Z,97
2022-08-26T06:58:57.090Z,97.06
2022-08-26T06:59:57.155Z,97.54
2022-08-26T07:01:03.827Z,98.9
2022-08-26T07:01:57.123Z,98.86
2022-08-26T07:02:57.164Z,98.26
2022-08-26T07:04:00.091Z,98.7
2022-08-26T07:05:00.118Z,98.92
2022-08-26T07:06:00.110Z,99.55
2022-08-26T07:06:57.451Z,100
2022-08-26T07:07:57.103Z,100
2022-08-26T07:08:57.115Z,100
2022-08-26T07:09:58.167Z,100
2022-08-26T07:10:58.099Z,100
2022-08-26T07:11:57.140Z,100
2022-08-26T07:12:58.300Z,100
2022-08-26T07:13:57.099Z,100
2022-08-26T07:15:00.216Z,100
2022-08-26T07:16:03.279Z,100
2022-08-26T07:16:57.121Z,100
2022-08-26T07:17:57.091Z,100
2022-08-26T07:18:58.096Z,100
2022-08-26T07:19:57.074Z,100
2022-08-26T07:20:58.116Z,100
2022-08-26T07:21:57.142Z,100
2022-08-26T07:22:57.114Z,100
2022-08-26T07:24:03.194Z,100
2022-08-26T07:24:57.421Z,100
2022-08-26T07:25:57.218Z,100
2022-08-26T07:26:57.270Z,100
2022-08-26T07:27:57.286Z,100
2022-08-26T07:28:57.078Z,100
2022-08-26T07:29:57.295Z,100
2022-08-26T07:31:00.367Z,100
2022-08-26T07:31:58.485Z,100
2022-08-26T07:32:58.257Z,100
2022-08-26T07:33:57.294Z,100
2022-08-26T07:34:57.787Z,100
2022-08-26T07:35:57.441Z,100
2022-08-26T07:36:57.253Z,100
2022-08-26T07:38:00.367Z,100
2022-08-26T07:38:57.253Z,100
2022-08-26T07:39:57.152Z,100
2022-08-26T07:40:57.084Z,100
2022-08-26T07:41:58.388Z,100
2022-08-26T07:42:57.100Z,100
2022-08-26T07:43:58.211Z,100
2022-08-26T07:44:58.295Z,100
2022-08-26T07:45:57.097Z,100
2022-08-26T07:46:57.089Z,100
2022-08-26T07:47:58.191Z,100
2022-08-26T07:48:57.101Z,100
2022-08-26T07:49:57.112Z,100
2022-08-26T07:50:57.121Z,100
2022-08-26T07:51:57.103Z,100
2022-08-26T07:52:57.114Z,100
2022-08-26T07:53:57.106Z,100
2022-08-26T07:54:57.126Z,100
2022-08-26T07:55:58.167Z,100
2022-08-26T07:56:58.105Z,100
2022-08-26T07:57:57.087Z,100
2022-08-26T07:58:57.117Z,100
2022-08-26T07:59:57.102Z,100
2022-08-26T08:00:57.085Z,100
2022-08-26T08:01:57.126Z,100
2022-08-26T08:02:58.108Z,100
2022-08-26T08:03:57.124Z,100
2022-08-26T08:04:57.185Z,100
2022-08-26T08:05:58.196Z,100
2022-08-26T08:06:57.110Z,100
2022-08-26T08:08:26.479Z,100
2022-08-26T08:08:57.131Z,100
2022-08-26T08:09:58.099Z,100
2022-08-26T08:10:57.093Z,100
2022-08-26T08:11:57.092Z,100
2022-08-26T08:12:58.091Z,100
2022-08-26T08:13:58.094Z,100
2022-08-26T08:14:57.099Z,100
2022-08-26T08:15:57.240Z,100
2022-08-26T08:16:57.168Z,100
2022-08-26T08:18:03.105Z,100
2022-08-26T08:18:57.115Z,100
2022-08-26T08:19:57.084Z,100
2022-08-26T08:21:17.754Z,100
2022-08-26T08:21:57.093Z,100
2022-08-26T08:22:58.094Z,100
2022-08-26T08:23:57.088Z,100
2022-08-26T08:24:58.102Z,100
2022-08-26T08:25:57.103Z,100
2022-08-26T08:27:01.217Z,100
2022-08-26T08:27:58.109Z,100
2022-08-26T08:28:57.208Z,100
2022-08-26T08:29:57.091Z,100
2022-08-26T08:30:57.131Z,100
2022-08-26T08:32:00.212Z,100
2022-08-26T08:32:57.098Z,100
2022-08-26T08:33:57.077Z,100
2022-08-26T08:34:57.080Z,100
2022-08-26T08:35:57.082Z,100
2022-08-26T08:36:57.071Z,100
2022-08-26T08:37:57.180Z,100
2022-08-26T08:38:57.080Z,100
2022-08-26T08:39:57.350Z,100
2022-08-26T08:40:57.442Z,100
2022-08-26T08:41:57.229Z,100
2022-08-26T08:42:57.303Z,100
2022-08-26T08:43:57.353Z,100
2022-08-26T08:44:57.130Z,100
2022-08-26T08:45:57.379Z,100
2022-08-26T08:46:58.224Z,100
2022-08-26T08:47:57.514Z,100
2022-08-26T08:48:58.809Z,100
2022-08-26T08:49:57.956Z,100
2022-08-26T08:50:58.311Z,100
2022-08-26T08:51:57.697Z,100
2022-08-26T08:52:57.058Z,100
2022-08-26T08:53:57.250Z,100
2022-08-26T08:54:57.404Z,100
2022-08-26T08:55:57.150Z,100
2022-08-26T08:57:00.196Z,100
2022-08-26T08:58:02.530Z,100
2022-08-26T08:58:58.596Z,100
2022-08-26T08:59:57.289Z,100
2022-08-26T09:00:57.503Z,100
2022-08-26T09:01:57.947Z,100
2022-08-26T09:02:57.675Z,100
2022-08-26T09:03:58.109Z,100
2022-08-26T09:05:00.395Z,100
2022-08-26T09:05:57.095Z,100
2022-08-26T09:07:57.108Z,100
2022-08-26T09:08:57.385Z,100
2022-08-26T09:09:57.127Z,100
2022-08-26T09:10:58.106Z,100
2022-08-26T09:11:57.090Z,100
2022-08-26T09:12:57.098Z,100
2022-08-26T09:13:57.257Z,100
2022-08-26T09:14:59.263Z,100
2022-08-26T09:15:57.109Z,100
2022-08-26T09:16:58.120Z,100
2022-08-26T09:17:57.095Z,100
2022-08-26T09:18:57.095Z,100
2022-08-26T09:19:57.115Z,100
2022-08-26T09:20:57.097Z,100
2022-08-26T09:21:58.115Z,99.95
2022-08-26T09:22:57.105Z,100
2022-08-26T09:23:57.190Z,99.62
2022-08-26T09:24:57.105Z,99.58
2022-08-26T09:25:57.248Z,99.48
2022-08-26T09:26:57.089Z,99.65
2022-08-26T09:28:00.119Z,99.71
2022-08-26T09:28:57.100Z,99.62
2022-08-26T09:29:57.103Z,98.92
2022-08-26T09:30:57.149Z,98.84
2022-08-26T09:31:57.091Z,98.85
2022-08-26T09:32:58.117Z,99.06
2022-08-26T09:33:57.125Z,99.12
2022-08-26T09:34:57.121Z,99.33
2022-08-26T09:35:57.123Z,98.89
2022-08-26T09:36:57.127Z,98.23
2022-08-26T09:37:57.081Z,97.52
2022-08-26T09:38:57.102Z,97.36
2022-08-26T09:39:57.179Z,96.83
2022-08-26T09:41:00.199Z,96.35
2022-08-26T09:41:57.106Z,96.15
2022-08-26T09:42:57.107Z,96.39
2022-08-26T09:43:57.089Z,96.75
2022-08-26T09:44:57.107Z,96.75
2022-08-26T09:46:00.219Z,97.17
2022-08-26T09:46:57.170Z,97.52
2022-08-26T09:47:57.100Z,98.04
2022-08-26T09:48:58.163Z,97.92
2022-08-26T09:49:57.084Z,97.58
2022-08-26T09:50:58.191Z,97.44
2022-08-26T09:51:57.459Z,97.1
2022-08-26T09:52:57.698Z,95.93
2022-08-26T09:53:57.527Z,95.79
2022-08-26T09:54:57.465Z,95.06
2022-08-26T09:55:56.816Z,94.43
2022-08-26T09:56:57.144Z,94.18
2022-08-26T09:58:02.295Z,94.14
2022-08-26T09:58:57.685Z,94.15
2022-08-26T09:59:57.317Z,93.98
2022-08-26T10:00:57.798Z,93.18
2022-08-26T10:01:58.946Z,93.61
2022-08-26T10:02:58.984Z,93.35
2022-08-26T10:03:58.466Z,92.87
2022-08-26T10:04:58.780Z,92.94
2022-08-26T10:05:57.095Z,93.35
2022-08-26T10:06:57.163Z,93.46
2022-08-26T10:07:57.096Z,93.08
2022-08-26T10:08:57.116Z,93.49
2022-08-26T10:09:57.117Z,93.77
2022-08-26T10:10:57.279Z,94.19
2022-08-26T10:11:57.110Z,92.94
2022-08-26T10:12:57.083Z,91.86
2022-08-26T10:13:57.096Z,90
2022-08-26T10:14:57.116Z,88.05
2022-08-26T10:15:57.108Z,87.65
2022-08-26T10:16:57.157Z,87.82
2022-08-26T10:17:57.097Z,87.46
2022-08-26T10:19:01.121Z,87.99
2022-08-26T10:19:58.107Z,87.2
2022-08-26T10:20:57.120Z,86.85
2022-08-26T10:21:57.279Z,86.83
2022-08-26T10:22:57.107Z,87.19
2022-08-26T10:23:57.093Z,86.92
2022-08-26T10:24:57.113Z,86.6
2022-08-26T10:26:00.117Z,86.16
2022-08-26T10:26:58.126Z,86.44
2022-08-26T10:27:57.097Z,86.2
2022-08-26T10:28:57.099Z,85.83
2022-08-26T10:29:57.120Z,85.19
2022-08-26T10:30:57.244Z,84.17
2022-08-26T10:32:03.091Z,84.59
2022-08-26T10:32:57.113Z,84.75
2022-08-26T10:34:01.088Z,84.49
2022-08-26T10:34:57.079Z,85.58
2022-08-26T10:35:57.091Z,85.76
2022-08-26T10:37:10.891Z,86.84
2022-08-26T10:37:58.079Z,87.13
2022-08-26T10:38:57.245Z,86.83
2022-08-26T10:40:00.195Z,87.42
2022-08-26T10:40:57.237Z,87.55
2022-08-26T10:41:57.520Z,87.34
2022-08-26T10:42:57.459Z,86.86
2022-08-26T10:43:57.166Z,86.8
2022-08-26T10:45:00.204Z,87.34
2022-08-26T10:45:57.552Z,87.5
2022-08-26T10:46:57.101Z,87.48
2022-08-26T10:47:57.210Z,87.79
2022-08-26T10:48:57.293Z,87.48
2022-08-26T10:50:03.625Z,87.07
2022-08-26T10:50:58.264Z,86.43
2022-08-26T10:51:57.431Z,85.6
2022-08-26T10:52:57.150Z,85.06
2022-08-26T10:53:57.079Z,84.24
2022-08-26T10:54:57.358Z,84.11
2022-08-26T10:55:57.588Z,84.29
2022-08-26T10:56:57.320Z,85.38
2022-08-26T10:57:57.097Z,85.44
2022-08-26T10:58:57.110Z,85.61
2022-08-26T10:59:57.224Z,85.05
2022-08-26T11:00:57.134Z,84.88
2022-08-26T11:01:58.120Z,82.69
2022-08-26T11:02:58.106Z,83.14
2022-08-26T11:04:00.231Z,82.51
2022-08-26T11:04:57.111Z,82.18
2022-08-26T11:05:58.104Z,82.22
2022-08-26T11:06:58.106Z,80.86
2022-08-26T11:07:58.108Z,81.05
2022-08-26T11:08:57.110Z,81.33
2022-08-26T11:09:57.092Z,80.19
2022-08-26T11:11:00.259Z,79.75
2022-08-26T11:11:57.098Z,79.08
2022-08-26T11:12:57.088Z,79.19
2022-08-26T11:13:57.098Z,79.67
2022-08-26T11:15:00.112Z,79.48
2022-08-26T11:15:57.113Z,80.3
2022-08-26T11:16:58.189Z,79.61
2022-08-26T11:17:57.143Z,79.07
2022-08-26T11:18:57.088Z,78.61
2022-08-26T11:20:07.545Z,77.94
2022-08-26T11:20:57.120Z,78.09
2022-08-26T11:21:57.091Z,77.04
2022-08-26T11:23:00.119Z,76.06
2022-08-26T11:23:57.124Z,76.03
2022-08-26T11:24:57.107Z,77.2
2022-08-26T11:25:58.110Z,76.26
2022-08-26T11:26:58.217Z,75.52
2022-08-26T11:27:57.095Z,75.22
2022-08-26T11:28:57.100Z,73.89
2022-08-26T11:29:58.237Z,73.99
2022-08-26T11:31:00.124Z,74.46
2022-08-26T11:31:57.261Z,74.1
2022-08-26T11:32:57.106Z,74.44
2022-08-26T11:33:57.100Z,74.2
2022-08-26T11:34:59.104Z,73.47
2022-08-26T11:35:57.100Z,73.46
2022-08-26T11:36:58.099Z,72.67
2022-08-26T11:37:57.112Z,70.84
2022-08-26T11:38:57.111Z,70.65
2022-08-26T11:40:00.182Z,70.64
2022-08-26T11:40:57.080Z,70.54
2022-08-26T11:41:58.257Z,70.14
2022-08-26T11:42:57.061Z,70.75
2022-08-26T11:43:58.164Z,71.18
2022-08-26T11:45:05.603Z,71.92
2022-08-26T11:45:57.226Z,72.89
2022-08-26T11:46:57.165Z,72.71
2022-08-26T11:47:57.481Z,73.06
2022-08-26T11:48:58.265Z,72.93
2022-08-26T11:49:59.457Z,73.64
2022-08-26T11:50:58.263Z,74.68
2022-08-26T11:51:57.508Z,75.96
2022-08-26T11:52:57.398Z,76.15
2022-08-26T11:54:00.185Z,75.71
2022-08-26T11:54:58.470Z,76.24
2022-08-26T11:55:57.084Z,76.85
2022-08-26T11:56:57.366Z,76.5
2022-08-26T11:57:57.063Z,75.76
2022-08-26T11:58:57.101Z,77.05
2022-08-26T11:59:57.218Z,75.94
2022-08-26T12:00:57.360Z,74.82
2022-08-26T12:01:57.414Z,74.8
2022-08-26T12:02:57.892Z,74.52
2022-08-26T12:03:59.719Z,74.3
2022-08-26T12:04:58.310Z,74.18
2022-08-26T12:05:58.324Z,73.28
2022-08-26T12:06:57.086Z,72.51
2022-08-26T12:07:58.197Z,71.07
2022-08-26T12:08:58.500Z,71.34
2022-08-26T12:09:58.733Z,71.28
2022-08-26T12:10:57.720Z,71.04
2022-08-26T12:12:00.591Z,71.79
2022-08-26T12:12:57.426Z,71.29
2022-08-26T12:13:57.151Z,70.83
2022-08-26T12:14:57.485Z,69.77
2022-08-26T12:15:58.097Z,68.43
2022-08-26T12:16:57.109Z,66.76
2022-08-26T12:17:57.377Z,67.27
2022-08-26T12:18:57.717Z,66.22
2022-08-26T12:19:58.189Z,65.36
2022-08-26T12:20:57.100Z,66.04
2022-08-26T12:21:57.257Z,66.22
2022-08-26T12:22:57.104Z,66.42
2022-08-26T12:23:57.109Z,67.23
2022-08-26T12:24:57.085Z,66.96
2022-08-26T12:25:57.084Z,67.66
2022-08-26T12:26:57.099Z,68.45
2022-08-26T12:27:57.105Z,68.88
2022-08-26T12:28:58.108Z,68.95
2022-08-26T12:29:57.094Z,68.67
2022-08-26T12:30:57.113Z,69.1
2022-08-26T12:31:57.158Z,69.67
2022-08-26T12:33:00.102Z,70.26
2022-08-26T12:34:00.249Z,70.94
2022-08-26T12:34:57.125Z,71.45
2022-08-26T12:35:58.242Z,71.46
2022-08-26T12:37:57.102Z,69.8
2022-08-26T12:39:00.107Z,68.65
2022-08-26T12:39:57.103Z,66.07
2022-08-26T12:40:57.105Z,66.03
2022-08-26T12:41:57.104Z,66.73
2022-08-26T12:42:57.103Z,68.22
2022-08-26T12:43:57.218Z,69.69
2022-08-26T12:44:57.119Z,69.42
2022-08-26T12:45:57.133Z,68.28
2022-08-26T12:46:57.092Z,68.85
2022-08-26T12:47:57.099Z,68.84
2022-08-26T12:48:57.114Z,69.63
2022-08-26T12:49:57.095Z,69.4
2022-08-26T12:50:57.107Z,70.2
2022-08-26T12:51:57.102Z,71.04
2022-08-26T12:52:57.112Z,70.96
2022-08-26T12:53:57.109Z,70.55
2022-08-26T12:55:00.142Z,70.6
2022-08-26T12:55:57.226Z,70.03
2022-08-26T12:56:57.337Z,70.25
2022-08-26T12:57:57.084Z,70.5
2022-08-26T12:58:57.101Z,70.76
2022-08-26T12:59:57.093Z,70.96
2022-08-26T13:00:57.228Z,71.1
2022-08-26T13:01:57.199Z,70.85
2022-08-26T13:02:57.101Z,70.5
2022-08-26T13:03:57.122Z,70.4
2022-08-26T13:05:03.208Z,69.72
2022-08-26T13:05:57.099Z,68.85
2022-08-26T13:06:57.118Z,69.11
2022-08-26T13:07:57.099Z,69.19
2022-08-26T13:08:57.099Z,69.71
2022-08-26T13:09:57.098Z,70.53
2022-08-26T13:10:57.097Z,70.99
2022-08-26T13:11:57.119Z,70.9
2022-08-26T13:12:57.101Z,71.58
2022-08-26T13:13:58.101Z,71.18
2022-08-26T13:14:57.100Z,70.64
2022-08-26T13:15:57.265Z,70.63
2022-08-26T13:16:57.113Z,70.78
2022-08-26T13:18:00.114Z,70.15
2022-08-26T13:18:57.099Z,70.82
2022-08-26T13:20:03.755Z,71.19
2022-08-26T13:20:57.095Z,71.69
2022-08-26T13:21:57.099Z,70.33
2022-08-26T13:23:00.109Z,70.05
2022-08-26T13:23:57.098Z,69.62
2022-08-26T13:24:57.095Z,70.44
2022-08-26T13:25:57.099Z,70.31
2022-08-26T13:26:57.103Z,70.05
2022-08-26T13:27:57.101Z,68.67